Strona główna
METAR-TAF:

METAR-TAF

Lotnisko :

Port lotniczy Nawakszut

Nawakszut, Mauretania

Szerokość geograficzna: 18-18-36N, Długość geograficzna: 015-58-11W, wysokość: 3 m

Aktualna obserwacja pogody

Raport powstał 29 minut temu, godzina 11:30 UTC
Wiatr 7 kt od północ, zmienny między północny zachód i północno-północny wschód
Temperatura 28°C
Wilgotność 70%
Ciśnienie 1016 hPa
Widzialność 10 km lub więcej
Mało chmury na wysokości 800 ft

METAR: GQNO 161130Z 36007KT 320V030 9999 FEW008 28/22 Q1016 NOSIG

czas: 11:59 (11:59 UTC)

Prognoza

Raport powstał 6 godziny i 59 minut temu, godzina 05:00 UTC
Prognoza ważna od 16 godzina 06 UTC do 17 godzina 12 UTC
Wiatr 6 kt od północno-północny zachód
Widzialność: 7000 m
Stopniowe zmiany
od 16 godzina 08 UTC do 16 godzina 11 UTC
Wiatr 12 kt od północ

TAF: GQNO 160500Z 1606/1712 34006KT 7000 NSC BECMG 1608/1611 36012KT

Obserwacja i prognoza pogody dla ponad 4000 lotnisk (raport METAR i TAF).

Dostępne stacje oznaczono żółtymi i czerwonymi punktami na mapie.

Najedź kursorem aby zobaczyć nazwę stacji.

Kliknij aby zobaczyć obserwacje i prognozy pogody.

Aby zmienić mapę: kliknij na zielony przycisk z czarnym krzyżykiem, aby powiększyć; na zielony przycisk z myślnikiem, aby pomniejszyć; na zielone strzałki, aby przejść do map sąsiednich.


METAR-TAF: